RYR40CR LGAV-EPMO
Flight info
| Callsign | RYR40CR |
|---|---|
| Flight time | 2h 12m |
| Altitude | 38000 |
| Route | ROPOX UM749 SKP UV652 PEREN UN133 ATFIR N133 LOMOS DCT OLMIP DCT NARKA DCT KSC DCT LENOV N133 KOTEK M866 LOGDA |
| Aircraft | B738/M-SDE2E3FGHIRWXY/LB1 |
Departure
| Time | 2026-05-09 06:58 |
|---|---|
| Airport | Athens Eleftherios Venizelos International Airport (LGAV) |
Arrival
| Time | 2026-05-09 09:11 |
|---|---|
| Airport | Warsaw Modlin Airport (EPMO) |
| Time | Latitude | Longitude | Altitude | Speed | Heading |
|---|---|---|---|---|---|
| 2026-05-09 06:35 | 37.93113 | 23.94414 | 300 ft | 0 kts | 217° |
| 2026-05-09 06:46 | 37.93121 | 23.94421 | 304 ft | 3 kts | 215° |
| 2026-05-09 06:46 | 37.93137 | 23.94435 | 302 ft | 3 kts | 212° |
| 2026-05-09 06:46 | 37.93152 | 23.94447 | 302 ft | 3 kts | 212° |
| 2026-05-09 06:47 | 37.93168 | 23.94457 | 302 ft | 3 kts | 178° |
| 2026-05-09 06:47 | 37.93184 | 23.94451 | 300 ft | 3 kts | 134° |
| 2026-05-09 06:47 | 37.93195 | 23.94435 | 299 ft | 1 kts | 127° |
| 2026-05-09 06:47 | 37.93198 | 23.94431 | 302 ft | 0 kts | 127° |
| 2026-05-09 06:51 | 37.93197 | 23.94431 | 302 ft | 2 kts | 127° |
| 2026-05-09 06:51 | 37.93162 | 23.94491 | 300 ft | 17 kts | 127° |
| 2026-05-09 06:52 | 37.93065 | 23.94663 | 303 ft | 25 kts | 113° |
| 2026-05-09 06:52 | 37.93152 | 23.94810 | 300 ft | 27 kts | 38° |
| 2026-05-09 06:52 | 37.93303 | 23.94954 | 298 ft | 26 kts | 37° |
| 2026-05-09 06:52 | 37.93445 | 23.95088 | 298 ft | 25 kts | 36° |
| 2026-05-09 06:53 | 37.93576 | 23.95212 | 298 ft | 23 kts | 36° |
| 2026-05-09 06:53 | 37.93717 | 23.95345 | 298 ft | 28 kts | 37° |
| 2026-05-09 06:53 | 37.93870 | 23.95491 | 296 ft | 27 kts | 37° |
| 2026-05-09 06:53 | 37.94015 | 23.95629 | 295 ft | 25 kts | 37° |
| 2026-05-09 06:54 | 37.94151 | 23.95757 | 296 ft | 23 kts | 37° |
| 2026-05-09 06:54 | 37.94281 | 23.95881 | 299 ft | 23 kts | 36° |
| 2026-05-09 06:54 | 37.94406 | 23.96001 | 298 ft | 24 kts | 38° |
| 2026-05-09 06:54 | 37.94550 | 23.96135 | 298 ft | 26 kts | 37° |
| 2026-05-09 06:55 | 37.94689 | 23.96267 | 299 ft | 24 kts | 37° |
| 2026-05-09 06:55 | 37.94775 | 23.96349 | 299 ft | 23 kts | 37° |
| 2026-05-09 06:55 | 37.94901 | 23.96469 | 300 ft | 22 kts | 37° |
| 2026-05-09 06:55 | 37.95031 | 23.96592 | 301 ft | 26 kts | 37° |
| 2026-05-09 06:56 | 37.95174 | 23.96727 | 302 ft | 25 kts | 38° |
| 2026-05-09 06:56 | 37.95307 | 23.96854 | 304 ft | 23 kts | 37° |
| 2026-05-09 06:56 | 37.95372 | 23.97003 | 304 ft | 22 kts | 134° |
| 2026-05-09 06:56 | 37.95245 | 23.97035 | 309 ft | 18 kts | 176° |
| 2026-05-09 06:57 | 37.95183 | 23.97014 | 309 ft | 6 kts | 216° |
| 2026-05-09 06:57 | 37.95130 | 23.96964 | 308 ft | 23 kts | 217° |
| 2026-05-09 06:57 | 37.94783 | 23.96634 | 300 ft | 101 kts | 217° |
| 2026-05-09 06:57 | 37.94041 | 23.95929 | 298 ft | 164 kts | 217° |
| 2026-05-09 06:58 | 37.93070 | 23.95012 | 890 ft | 181 kts | 212° |
| 2026-05-09 06:58 | 37.91920 | 23.94225 | 1684 ft | 192 kts | 208° |
| 2026-05-09 06:58 | 37.90685 | 23.93380 | 2141 ft | 214 kts | 208° |
| 2026-05-09 06:58 | 37.89313 | 23.92429 | 2578 ft | 230 kts | 210° |
| 2026-05-09 06:59 | 37.87894 | 23.91434 | 3343 ft | 233 kts | 211° |
| 2026-05-09 06:59 | 37.86472 | 23.90445 | 4149 ft | 236 kts | 212° |
| 2026-05-09 06:59 | 37.84951 | 23.89398 | 4552 ft | 263 kts | 212° |
| 2026-05-09 06:59 | 37.83568 | 23.87827 | 4967 ft | 280 kts | 242° |
| 2026-05-09 07:00 | 37.83026 | 23.85453 | 5819 ft | 285 kts | 268° |
| 2026-05-09 07:00 | 37.83378 | 23.82983 | 6780 ft | 291 kts | 290° |
| 2026-05-09 07:00 | 37.84478 | 23.80834 | 7623 ft | 301 kts | 310° |
| 2026-05-09 07:00 | 37.86206 | 23.79255 | 8447 ft | 314 kts | 331° |
| 2026-05-09 07:01 | 37.88349 | 23.78558 | 9383 ft | 326 kts | 353° |
| 2026-05-09 07:01 | 37.90639 | 23.78566 | 10261 ft | 332 kts | 358° |
| 2026-05-09 07:01 | 37.92961 | 23.78718 | 11025 ft | 338 kts | 359° |
| 2026-05-09 07:01 | 37.95393 | 23.78912 | 11338 ft | 360 kts | 360° |
| 2026-05-09 07:02 | 37.97935 | 23.79117 | 11880 ft | 370 kts | 360° |
| 2026-05-09 07:02 | 38.00517 | 23.79320 | 12686 ft | 372 kts | 360° |
| 2026-05-09 07:02 | 38.03112 | 23.79516 | 13512 ft | 374 kts | 359° |
| 2026-05-09 07:02 | 38.05690 | 23.79701 | 14221 ft | 378 kts | 359° |
| 2026-05-09 07:03 | 38.08335 | 23.79882 | 14886 ft | 382 kts | 359° |
| 2026-05-09 07:03 | 38.11014 | 23.80061 | 15574 ft | 385 kts | 358° |
| 2026-05-09 07:03 | 38.13703 | 23.80238 | 16245 ft | 389 kts | 358° |
| 2026-05-09 07:03 | 38.16417 | 23.80414 | 16880 ft | 393 kts | 358° |
| 2026-05-09 07:04 | 38.19162 | 23.80592 | 17508 ft | 397 kts | 357° |
| 2026-05-09 07:04 | 38.21901 | 23.80772 | 18122 ft | 401 kts | 357° |
| 2026-05-09 07:04 | 38.24705 | 23.80953 | 18716 ft | 404 kts | 356° |
| 2026-05-09 07:04 | 38.27526 | 23.81135 | 19291 ft | 407 kts | 356° |
| 2026-05-09 07:05 | 38.30365 | 23.81319 | 19854 ft | 410 kts | 356° |
| 2026-05-09 07:05 | 38.33233 | 23.81505 | 20387 ft | 414 kts | 356° |
| 2026-05-09 07:05 | 38.36120 | 23.81693 | 20916 ft | 417 kts | 356° |
| 2026-05-09 07:05 | 38.39036 | 23.81883 | 21424 ft | 420 kts | 356° |
| 2026-05-09 07:06 | 38.41940 | 23.82073 | 21910 ft | 424 kts | 356° |
| 2026-05-09 07:06 | 38.44898 | 23.82265 | 22380 ft | 427 kts | 356° |
| 2026-05-09 07:06 | 38.47885 | 23.82459 | 22879 ft | 431 kts | 356° |
| 2026-05-09 07:06 | 38.50884 | 23.82656 | 23369 ft | 434 kts | 356° |
| 2026-05-09 07:07 | 38.53917 | 23.82856 | 23802 ft | 437 kts | 356° |
| 2026-05-09 07:07 | 38.56964 | 23.83057 | 24236 ft | 439 kts | 356° |
| 2026-05-09 07:07 | 38.60019 | 23.83261 | 24691 ft | 440 kts | 356° |
| 2026-05-09 07:07 | 38.63085 | 23.83464 | 25154 ft | 442 kts | 356° |
| 2026-05-09 07:08 | 38.66161 | 23.83667 | 25574 ft | 444 kts | 356° |
| 2026-05-09 07:08 | 38.69258 | 23.83872 | 25959 ft | 446 kts | 356° |
| 2026-05-09 07:08 | 38.72328 | 23.84074 | 26324 ft | 448 kts | 356° |
| 2026-05-09 07:08 | 38.75453 | 23.84280 | 26698 ft | 450 kts | 356° |
| 2026-05-09 07:09 | 38.78588 | 23.84487 | 27061 ft | 452 kts | 356° |
| 2026-05-09 07:09 | 38.81742 | 23.84696 | 27413 ft | 454 kts | 356° |
| 2026-05-09 07:09 | 38.84912 | 23.84906 | 27753 ft | 456 kts | 356° |
| 2026-05-09 07:09 | 38.88088 | 23.85117 | 28093 ft | 458 kts | 356° |
| 2026-05-09 07:10 | 38.91285 | 23.85329 | 28438 ft | 460 kts | 356° |
| 2026-05-09 07:10 | 38.94442 | 23.85540 | 28882 ft | 459 kts | 356° |
| 2026-05-09 07:10 | 38.97625 | 23.85755 | 29413 ft | 456 kts | 356° |
| 2026-05-09 07:10 | 39.00783 | 23.85968 | 29935 ft | 454 kts | 356° |
| 2026-05-09 07:11 | 39.03945 | 23.86181 | 30336 ft | 453 kts | 356° |
| 2026-05-09 07:11 | 39.07104 | 23.86391 | 30669 ft | 454 kts | 356° |
| 2026-05-09 07:11 | 39.10254 | 23.86600 | 31006 ft | 454 kts | 356° |
| 2026-05-09 07:11 | 39.13411 | 23.86811 | 31384 ft | 453 kts | 356° |
| 2026-05-09 07:12 | 39.16552 | 23.87021 | 31790 ft | 451 kts | 356° |
| 2026-05-09 07:12 | 39.19641 | 23.87229 | 32144 ft | 450 kts | 356° |
| 2026-05-09 07:12 | 39.22773 | 23.87438 | 32443 ft | 451 kts | 356° |
| 2026-05-09 07:12 | 39.25912 | 23.87647 | 32745 ft | 451 kts | 356° |
| 2026-05-09 07:13 | 39.29058 | 23.87858 | 33115 ft | 450 kts | 356° |
| 2026-05-09 07:13 | 39.32188 | 23.88069 | 33494 ft | 449 kts | 356° |
| 2026-05-09 07:13 | 39.35312 | 23.88280 | 33816 ft | 448 kts | 356° |
| 2026-05-09 07:13 | 39.38395 | 23.88487 | 34120 ft | 448 kts | 356° |
| 2026-05-09 07:14 | 39.41507 | 23.88697 | 34399 ft | 447 kts | 356° |
| 2026-05-09 07:14 | 39.44624 | 23.88907 | 34675 ft | 447 kts | 356° |
| 2026-05-09 07:14 | 39.47735 | 23.89117 | 34937 ft | 447 kts | 356° |
| 2026-05-09 07:14 | 39.50844 | 23.89327 | 35195 ft | 446 kts | 356° |
| 2026-05-09 07:15 | 39.53909 | 23.89534 | 35464 ft | 445 kts | 356° |
| 2026-05-09 07:15 | 39.57010 | 23.89744 | 35729 ft | 445 kts | 357° |
| 2026-05-09 07:15 | 39.60105 | 23.89954 | 35973 ft | 445 kts | 357° |
| 2026-05-09 07:15 | 39.63210 | 23.90164 | 36198 ft | 445 kts | 357° |
| 2026-05-09 07:16 | 39.66266 | 23.90371 | 36448 ft | 444 kts | 357° |
| 2026-05-09 07:16 | 39.69354 | 23.90580 | 36683 ft | 444 kts | 357° |
| 2026-05-09 07:16 | 39.72442 | 23.90790 | 36902 ft | 444 kts | 357° |
| 2026-05-09 07:16 | 39.75534 | 23.91000 | 37122 ft | 444 kts | 357° |
| 2026-05-09 07:17 | 39.78615 | 23.91210 | 37360 ft | 443 kts | 357° |
| 2026-05-09 07:17 | 39.81693 | 23.91420 | 37580 ft | 443 kts | 357° |
| 2026-05-09 07:17 | 39.84777 | 23.91630 | 37775 ft | 443 kts | 357° |
| 2026-05-09 07:17 | 39.87859 | 23.91841 | 37963 ft | 443 kts | 358° |
| 2026-05-09 07:18 | 39.94005 | 23.92259 | 38048 ft | 447 kts | 358° |
| 2026-05-09 07:18 | 40.00215 | 23.92685 | 38050 ft | 444 kts | 358° |
| 2026-05-09 07:19 | 40.06378 | 23.93110 | 38050 ft | 441 kts | 358° |
| 2026-05-09 07:19 | 40.12466 | 23.93529 | 38053 ft | 439 kts | 358° |
| 2026-05-09 07:20 | 40.18564 | 23.93948 | 38058 ft | 438 kts | 358° |
| 2026-05-09 07:20 | 40.24654 | 23.94368 | 38056 ft | 438 kts | 358° |
| 2026-05-09 07:21 | 40.30717 | 23.94786 | 38056 ft | 438 kts | 358° |
| 2026-05-09 07:21 | 40.36829 | 23.95208 | 38059 ft | 440 kts | 358° |
| 2026-05-09 07:22 | 40.42970 | 23.95634 | 38048 ft | 442 kts | 359° |
| 2026-05-09 07:22 | 40.49133 | 23.96063 | 38054 ft | 444 kts | 359° |
| 2026-05-09 07:23 | 40.55293 | 23.96492 | 38057 ft | 446 kts | 359° |
| 2026-05-09 07:23 | 40.61479 | 23.96505 | 38042 ft | 441 kts | 347° |
| 2026-05-09 07:24 | 40.67505 | 23.95086 | 38049 ft | 440 kts | 345° |
| 2026-05-09 07:24 | 40.73521 | 23.93555 | 38046 ft | 440 kts | 345° |
| 2026-05-09 07:25 | 40.79551 | 23.92072 | 38053 ft | 440 kts | 346° |
| 2026-05-09 07:25 | 40.85558 | 23.90629 | 38058 ft | 440 kts | 346° |
| 2026-05-09 07:26 | 40.91590 | 23.89187 | 38054 ft | 440 kts | 346° |
| 2026-05-09 07:26 | 40.97578 | 23.87751 | 38049 ft | 439 kts | 346° |
| 2026-05-09 07:27 | 41.03576 | 23.86308 | 38050 ft | 437 kts | 346° |
| 2026-05-09 07:27 | 41.09559 | 23.84866 | 38043 ft | 436 kts | 346° |
| 2026-05-09 07:28 | 41.15524 | 23.83426 | 38044 ft | 435 kts | 346° |
| 2026-05-09 07:28 | 41.21475 | 23.81986 | 38044 ft | 433 kts | 346° |
| 2026-05-09 07:29 | 41.27363 | 23.80559 | 38050 ft | 432 kts | 346° |
| 2026-05-09 07:29 | 41.33302 | 23.79141 | 38044 ft | 432 kts | 347° |
| 2026-05-09 07:30 | 41.39228 | 23.77733 | 38035 ft | 431 kts | 347° |
| 2026-05-09 07:30 | 41.45188 | 23.76656 | 38041 ft | 433 kts | 351° |
| 2026-05-09 07:31 | 41.51173 | 23.75870 | 38039 ft | 435 kts | 351° |
| 2026-05-09 07:31 | 41.57206 | 23.75073 | 38046 ft | 435 kts | 351° |
| 2026-05-09 07:32 | 41.63244 | 23.74234 | 38045 ft | 436 kts | 351° |
| 2026-05-09 07:32 | 41.69259 | 23.73378 | 38047 ft | 437 kts | 351° |
| 2026-05-09 07:33 | 41.78370 | 23.72074 | 38044 ft | 440 kts | 351° |
| 2026-05-09 07:34 | 41.84473 | 23.71201 | 38042 ft | 441 kts | 351° |
| 2026-05-09 07:34 | 41.90538 | 23.70331 | 38043 ft | 441 kts | 351° |
| 2026-05-09 07:35 | 41.96650 | 23.69453 | 38043 ft | 441 kts | 351° |
| 2026-05-09 07:35 | 42.02763 | 23.68572 | 38042 ft | 441 kts | 351° |
| 2026-05-09 07:36 | 42.08840 | 23.67696 | 38041 ft | 440 kts | 351° |
| 2026-05-09 07:36 | 42.14934 | 23.66815 | 38022 ft | 439 kts | 351° |
| 2026-05-09 07:37 | 42.20992 | 23.65938 | 38050 ft | 437 kts | 351° |
| 2026-05-09 07:37 | 42.27057 | 23.65057 | 38036 ft | 437 kts | 351° |
| 2026-05-09 07:38 | 42.32058 | 23.64107 | 38037 ft | 433 kts | 344° |
| 2026-05-09 07:38 | 42.35536 | 23.62954 | 38052 ft | 432 kts | 342° |
| 2026-05-09 07:39 | 42.41349 | 23.60848 | 38045 ft | 432 kts | 342° |
| 2026-05-09 07:39 | 42.47118 | 23.58778 | 38046 ft | 432 kts | 342° |
| 2026-05-09 07:40 | 42.52957 | 23.56730 | 38054 ft | 433 kts | 343° |
| 2026-05-09 07:40 | 42.58814 | 23.54694 | 38047 ft | 434 kts | 343° |
| 2026-05-09 07:41 | 42.64645 | 23.52666 | 38055 ft | 435 kts | 343° |
| 2026-05-09 07:41 | 42.70530 | 23.50615 | 38049 ft | 436 kts | 343° |
| 2026-05-09 07:42 | 42.76417 | 23.48558 | 38057 ft | 436 kts | 343° |
| 2026-05-09 07:42 | 42.82266 | 23.46510 | 38055 ft | 437 kts | 343° |
| 2026-05-09 07:43 | 42.88163 | 23.44440 | 38050 ft | 438 kts | 343° |
| 2026-05-09 07:43 | 42.93072 | 23.42715 | 38043 ft | 438 kts | 343° |
| 2026-05-09 07:44 | 42.98973 | 23.40637 | 38040 ft | 438 kts | 343° |
| 2026-05-09 07:44 | 43.04890 | 23.38549 | 38052 ft | 437 kts | 343° |
| 2026-05-09 07:45 | 43.10755 | 23.36475 | 38035 ft | 437 kts | 343° |
| 2026-05-09 07:45 | 43.16650 | 23.34387 | 38039 ft | 436 kts | 342° |
| 2026-05-09 07:46 | 43.22567 | 23.32446 | 38032 ft | 439 kts | 350° |
| 2026-05-09 07:46 | 43.28680 | 23.31758 | 38035 ft | 440 kts | 353° |
| 2026-05-09 07:47 | 43.34741 | 23.31074 | 38041 ft | 439 kts | 352° |
| 2026-05-09 07:47 | 43.40820 | 23.30298 | 38032 ft | 438 kts | 352° |
| 2026-05-09 07:48 | 43.46901 | 23.29520 | 38033 ft | 438 kts | 352° |
| 2026-05-09 07:48 | 43.52965 | 23.28754 | 38033 ft | 437 kts | 352° |
| 2026-05-09 07:49 | 43.59003 | 23.28008 | 38027 ft | 437 kts | 352° |
| 2026-05-09 07:49 | 43.65067 | 23.27263 | 38036 ft | 437 kts | 352° |
| 2026-05-09 07:50 | 43.71131 | 23.26512 | 38033 ft | 437 kts | 352° |
| 2026-05-09 07:50 | 43.77196 | 23.25760 | 38032 ft | 437 kts | 352° |
| 2026-05-09 07:51 | 43.83226 | 23.24962 | 38031 ft | 437 kts | 348° |
| 2026-05-09 07:51 | 43.89102 | 23.22946 | 38031 ft | 434 kts | 341° |
| 2026-05-09 07:52 | 43.94922 | 23.20631 | 38036 ft | 435 kts | 341° |
| 2026-05-09 07:52 | 44.00723 | 23.18341 | 38024 ft | 436 kts | 341° |
| 2026-05-09 07:53 | 44.06584 | 23.16064 | 38033 ft | 436 kts | 342° |
| 2026-05-09 07:53 | 44.12395 | 23.13820 | 38030 ft | 436 kts | 342° |
| 2026-05-09 07:54 | 44.18257 | 23.11555 | 38029 ft | 437 kts | 342° |
| 2026-05-09 07:54 | 44.24113 | 23.09287 | 38032 ft | 437 kts | 342° |
| 2026-05-09 07:55 | 44.29979 | 23.07011 | 38032 ft | 437 kts | 342° |
| 2026-05-09 07:55 | 44.35806 | 23.04744 | 38035 ft | 437 kts | 342° |
| 2026-05-09 07:56 | 44.41672 | 23.02457 | 38041 ft | 437 kts | 342° |
| 2026-05-09 07:56 | 44.47542 | 23.00164 | 38036 ft | 438 kts | 342° |
| 2026-05-09 07:57 | 44.53414 | 22.97865 | 38037 ft | 438 kts | 342° |
| 2026-05-09 07:57 | 44.59286 | 22.95562 | 38035 ft | 438 kts | 341° |
| 2026-05-09 07:58 | 44.65121 | 22.93268 | 38030 ft | 438 kts | 342° |
| 2026-05-09 07:58 | 44.71005 | 22.90950 | 38032 ft | 438 kts | 342° |
| 2026-05-09 07:59 | 44.76870 | 22.88636 | 38041 ft | 437 kts | 341° |
| 2026-05-09 07:59 | 44.82710 | 22.86324 | 38021 ft | 438 kts | 341° |
| 2026-05-09 08:00 | 44.88601 | 22.83990 | 38034 ft | 438 kts | 341° |
| 2026-05-09 08:00 | 44.94439 | 22.81670 | 38038 ft | 438 kts | 341° |
| 2026-05-09 08:01 | 45.00310 | 22.79333 | 38044 ft | 438 kts | 341° |
| 2026-05-09 08:01 | 45.06190 | 22.76987 | 38044 ft | 439 kts | 341° |
| 2026-05-09 08:02 | 45.12044 | 22.74646 | 38051 ft | 439 kts | 341° |
| 2026-05-09 08:02 | 45.17928 | 22.72289 | 38062 ft | 439 kts | 341° |
| 2026-05-09 08:03 | 45.23820 | 22.69923 | 38065 ft | 440 kts | 341° |
| 2026-05-09 08:03 | 45.29681 | 22.67564 | 38061 ft | 440 kts | 341° |
| 2026-05-09 08:04 | 45.35592 | 22.65180 | 38074 ft | 440 kts | 341° |
| 2026-05-09 08:04 | 45.41466 | 22.62806 | 38060 ft | 442 kts | 341° |
| 2026-05-09 08:05 | 45.47398 | 22.60404 | 38071 ft | 442 kts | 341° |
| 2026-05-09 08:05 | 45.53322 | 22.57999 | 38080 ft | 442 kts | 341° |
| 2026-05-09 08:06 | 45.59218 | 22.55600 | 38069 ft | 443 kts | 341° |
| 2026-05-09 08:06 | 45.65146 | 22.53184 | 38071 ft | 443 kts | 341° |
| 2026-05-09 08:07 | 45.71079 | 22.50760 | 38053 ft | 443 kts | 341° |
| 2026-05-09 08:07 | 45.76964 | 22.48350 | 38075 ft | 442 kts | 341° |
| 2026-05-09 08:08 | 45.82885 | 22.45919 | 38082 ft | 443 kts | 341° |
| 2026-05-09 08:08 | 45.88827 | 22.43475 | 38068 ft | 443 kts | 341° |
| 2026-05-09 08:09 | 45.94750 | 22.41033 | 38064 ft | 442 kts | 341° |
| 2026-05-09 08:09 | 46.00642 | 22.38598 | 38074 ft | 442 kts | 341° |
| 2026-05-09 08:10 | 46.06565 | 22.36146 | 38067 ft | 442 kts | 341° |
| 2026-05-09 08:10 | 46.12451 | 22.33704 | 38062 ft | 442 kts | 341° |
| 2026-05-09 08:11 | 46.18374 | 22.31241 | 38070 ft | 442 kts | 341° |
| 2026-05-09 08:11 | 46.24285 | 22.28777 | 38070 ft | 442 kts | 341° |
| 2026-05-09 08:12 | 46.33136 | 22.25076 | 38071 ft | 442 kts | 341° |
| 2026-05-09 08:12 | 46.39018 | 22.22610 | 38070 ft | 443 kts | 341° |
| 2026-05-09 08:13 | 46.44956 | 22.20115 | 38070 ft | 443 kts | 341° |
| 2026-05-09 08:13 | 46.50896 | 22.17613 | 38067 ft | 444 kts | 341° |
| 2026-05-09 08:14 | 46.56812 | 22.15116 | 38061 ft | 445 kts | 340° |
| 2026-05-09 08:14 | 46.62768 | 22.12596 | 38066 ft | 445 kts | 340° |
| 2026-05-09 08:15 | 46.68734 | 22.10066 | 38061 ft | 446 kts | 340° |
| 2026-05-09 08:15 | 46.74665 | 22.07545 | 38062 ft | 446 kts | 340° |
| 2026-05-09 08:16 | 46.80631 | 22.05004 | 38073 ft | 445 kts | 340° |
| 2026-05-09 08:16 | 46.86582 | 22.02463 | 38071 ft | 445 kts | 340° |
| 2026-05-09 08:17 | 46.92497 | 21.99932 | 38081 ft | 445 kts | 340° |
| 2026-05-09 08:17 | 46.98450 | 21.97378 | 38077 ft | 445 kts | 340° |
| 2026-05-09 08:18 | 47.04354 | 21.94839 | 38078 ft | 445 kts | 340° |
| 2026-05-09 08:18 | 47.10302 | 21.92275 | 38086 ft | 445 kts | 340° |
| 2026-05-09 08:19 | 47.16260 | 21.89701 | 38075 ft | 445 kts | 340° |
| 2026-05-09 08:19 | 47.22167 | 21.87144 | 38080 ft | 445 kts | 340° |
| 2026-05-09 08:20 | 47.28130 | 21.84586 | 38073 ft | 445 kts | 341° |
| 2026-05-09 08:20 | 47.34075 | 21.82125 | 38077 ft | 446 kts | 341° |
| 2026-05-09 08:21 | 47.40064 | 21.79651 | 38084 ft | 446 kts | 341° |
| 2026-05-09 08:21 | 47.46053 | 21.77159 | 38077 ft | 447 kts | 341° |
| 2026-05-09 08:22 | 47.52008 | 21.74669 | 38081 ft | 447 kts | 341° |
| 2026-05-09 08:22 | 47.58011 | 21.72152 | 38080 ft | 448 kts | 341° |
| 2026-05-09 08:23 | 47.64023 | 21.69624 | 38077 ft | 448 kts | 341° |
| 2026-05-09 08:23 | 47.70032 | 21.67093 | 38085 ft | 449 kts | 341° |
| 2026-05-09 08:24 | 47.76019 | 21.64563 | 38091 ft | 449 kts | 341° |
| 2026-05-09 08:24 | 47.82044 | 21.62013 | 38102 ft | 449 kts | 341° |
| 2026-05-09 08:25 | 47.88025 | 21.59475 | 38105 ft | 449 kts | 341° |
| 2026-05-09 08:25 | 47.94036 | 21.56917 | 38106 ft | 450 kts | 340° |
| 2026-05-09 08:26 | 48.00074 | 21.54342 | 38106 ft | 449 kts | 340° |
| 2026-05-09 08:26 | 48.06051 | 21.51787 | 38102 ft | 450 kts | 340° |
| 2026-05-09 08:27 | 48.12077 | 21.49205 | 38098 ft | 450 kts | 340° |
| 2026-05-09 08:27 | 48.18110 | 21.46613 | 38097 ft | 450 kts | 340° |
| 2026-05-09 08:28 | 48.24102 | 21.44033 | 38093 ft | 450 kts | 340° |
| 2026-05-09 08:28 | 48.30127 | 21.41432 | 38092 ft | 450 kts | 340° |
| 2026-05-09 08:29 | 48.36154 | 21.38823 | 38100 ft | 450 kts | 340° |
| 2026-05-09 08:29 | 48.42157 | 21.36219 | 38102 ft | 451 kts | 340° |
| 2026-05-09 08:30 | 48.48192 | 21.33594 | 38108 ft | 451 kts | 340° |
| 2026-05-09 08:30 | 48.54198 | 21.30975 | 38111 ft | 451 kts | 340° |
| 2026-05-09 08:31 | 48.60237 | 21.28336 | 38102 ft | 451 kts | 340° |
| 2026-05-09 08:31 | 48.66406 | 21.26315 | 38127 ft | 454 kts | 348° |
| 2026-05-09 08:32 | 48.72666 | 21.25107 | 38108 ft | 455 kts | 349° |
| 2026-05-09 08:33 | 48.81049 | 21.23516 | 38116 ft | 455 kts | 349° |
| 2026-05-09 08:33 | 48.87351 | 21.22236 | 38112 ft | 455 kts | 349° |
| 2026-05-09 08:34 | 48.93588 | 21.20937 | 38121 ft | 455 kts | 349° |
| 2026-05-09 08:34 | 48.99870 | 21.19619 | 38128 ft | 456 kts | 349° |
| 2026-05-09 08:35 | 49.06163 | 21.18297 | 38123 ft | 455 kts | 348° |
| 2026-05-09 08:35 | 49.12443 | 21.16976 | 38142 ft | 455 kts | 348° |
| 2026-05-09 08:36 | 49.18688 | 21.15660 | 38132 ft | 455 kts | 348° |
| 2026-05-09 08:36 | 49.24969 | 21.14333 | 38138 ft | 455 kts | 348° |
| 2026-05-09 08:37 | 49.31241 | 21.13004 | 38153 ft | 454 kts | 348° |
| 2026-05-09 08:37 | 49.37519 | 21.11670 | 38149 ft | 454 kts | 348° |
| 2026-05-09 08:38 | 49.43751 | 21.10343 | 38158 ft | 455 kts | 348° |
| 2026-05-09 08:38 | 49.50027 | 21.09003 | 38162 ft | 455 kts | 348° |
| 2026-05-09 08:39 | 49.56303 | 21.07660 | 38167 ft | 455 kts | 348° |
| 2026-05-09 08:39 | 49.62588 | 21.06311 | 38166 ft | 455 kts | 348° |
| 2026-05-09 08:40 | 49.68834 | 21.04967 | 38175 ft | 455 kts | 348° |
| 2026-05-09 08:40 | 49.75111 | 21.03613 | 38171 ft | 456 kts | 348° |
| 2026-05-09 08:41 | 49.81398 | 21.02253 | 38163 ft | 456 kts | 348° |
| 2026-05-09 08:41 | 49.87648 | 21.00898 | 38170 ft | 456 kts | 348° |
| 2026-05-09 08:42 | 49.93930 | 20.99532 | 38174 ft | 455 kts | 348° |
| 2026-05-09 08:42 | 50.00207 | 20.98164 | 38176 ft | 455 kts | 348° |
| 2026-05-09 08:43 | 50.06474 | 20.96794 | 38173 ft | 455 kts | 348° |
| 2026-05-09 08:43 | 50.12742 | 20.95421 | 38165 ft | 454 kts | 348° |
| 2026-05-09 08:44 | 50.18994 | 20.94047 | 38163 ft | 453 kts | 348° |
| 2026-05-09 08:44 | 50.25239 | 20.92671 | 38161 ft | 452 kts | 348° |
| 2026-05-09 08:45 | 50.31437 | 20.91302 | 38163 ft | 451 kts | 348° |
| 2026-05-09 08:45 | 50.37652 | 20.89926 | 38165 ft | 450 kts | 348° |
| 2026-05-09 08:46 | 50.43865 | 20.88545 | 38161 ft | 450 kts | 348° |
| 2026-05-09 08:46 | 50.50038 | 20.87171 | 38162 ft | 450 kts | 348° |
| 2026-05-09 08:47 | 50.56255 | 20.85783 | 38161 ft | 450 kts | 348° |
| 2026-05-09 08:47 | 50.62431 | 20.84400 | 38165 ft | 450 kts | 348° |
| 2026-05-09 08:48 | 50.68646 | 20.83005 | 38161 ft | 450 kts | 348° |
| 2026-05-09 08:48 | 50.74823 | 20.81615 | 38161 ft | 451 kts | 348° |
| 2026-05-09 08:49 | 50.81059 | 20.80208 | 38160 ft | 452 kts | 348° |
| 2026-05-09 08:49 | 50.87263 | 20.78805 | 38159 ft | 452 kts | 348° |
| 2026-05-09 08:49 | 50.90395 | 20.78094 | 37950 ft | 456 kts | 348° |
| 2026-05-09 08:50 | 50.93562 | 20.77374 | 37444 ft | 458 kts | 348° |
| 2026-05-09 08:50 | 50.96708 | 20.76660 | 36868 ft | 456 kts | 348° |
| 2026-05-09 08:50 | 50.99846 | 20.75947 | 36340 ft | 455 kts | 348° |
| 2026-05-09 08:50 | 51.02983 | 20.75233 | 35744 ft | 455 kts | 347° |
| 2026-05-09 08:51 | 51.06081 | 20.74525 | 35138 ft | 456 kts | 347° |
| 2026-05-09 08:51 | 51.09233 | 20.73803 | 34484 ft | 458 kts | 347° |
| 2026-05-09 08:51 | 51.12396 | 20.73078 | 33757 ft | 460 kts | 347° |
| 2026-05-09 08:51 | 51.15573 | 20.72349 | 33014 ft | 461 kts | 347° |
| 2026-05-09 08:52 | 51.18757 | 20.71619 | 32296 ft | 461 kts | 347° |
| 2026-05-09 08:52 | 51.21937 | 20.70889 | 31589 ft | 462 kts | 347° |
| 2026-05-09 08:52 | 51.25100 | 20.70372 | 31066 ft | 464 kts | 357° |
| 2026-05-09 08:52 | 51.28298 | 20.71249 | 30560 ft | 470 kts | 15° |
| 2026-05-09 08:53 | 51.31254 | 20.73509 | 29973 ft | 473 kts | 33° |
| 2026-05-09 08:53 | 51.33770 | 20.76889 | 29460 ft | 470 kts | 41° |
| 2026-05-09 08:53 | 51.36144 | 20.80451 | 28912 ft | 465 kts | 42° |
| 2026-05-09 08:53 | 51.38470 | 20.84006 | 28421 ft | 460 kts | 42° |
| 2026-05-09 08:54 | 51.40779 | 20.87519 | 27911 ft | 455 kts | 41° |
| 2026-05-09 08:54 | 51.43074 | 20.90974 | 27413 ft | 451 kts | 41° |
| 2026-05-09 08:54 | 51.45361 | 20.94385 | 26915 ft | 446 kts | 41° |
| 2026-05-09 08:54 | 51.47626 | 20.97746 | 26423 ft | 442 kts | 41° |
| 2026-05-09 08:55 | 51.49876 | 21.01082 | 25943 ft | 438 kts | 41° |
| 2026-05-09 08:55 | 51.52105 | 21.04387 | 25460 ft | 434 kts | 41° |
| 2026-05-09 08:55 | 51.54310 | 21.07665 | 24985 ft | 430 kts | 41° |
| 2026-05-09 08:55 | 51.56473 | 21.10885 | 24514 ft | 427 kts | 41° |
| 2026-05-09 08:56 | 51.58645 | 21.14124 | 24040 ft | 423 kts | 41° |
| 2026-05-09 08:56 | 51.60797 | 21.17340 | 23538 ft | 420 kts | 41° |
| 2026-05-09 08:56 | 51.62939 | 21.20546 | 22990 ft | 417 kts | 41° |
| 2026-05-09 08:56 | 51.65049 | 21.23712 | 22486 ft | 413 kts | 41° |
| 2026-05-09 08:57 | 51.67136 | 21.26848 | 22018 ft | 409 kts | 41° |
| 2026-05-09 08:57 | 51.69213 | 21.29973 | 21537 ft | 405 kts | 41° |
| 2026-05-09 08:57 | 51.71267 | 21.33069 | 21082 ft | 401 kts | 41° |
| 2026-05-09 08:57 | 51.73267 | 21.36086 | 20629 ft | 397 kts | 41° |
| 2026-05-09 08:58 | 51.75279 | 21.39124 | 20175 ft | 394 kts | 41° |
| 2026-05-09 08:58 | 51.77277 | 21.42145 | 19725 ft | 390 kts | 41° |
| 2026-05-09 08:58 | 51.79409 | 21.44798 | 19269 ft | 383 kts | 23° |
| 2026-05-09 08:58 | 51.81891 | 21.45875 | 18892 ft | 370 kts | 0° |
| 2026-05-09 08:59 | 51.84424 | 21.45635 | 18511 ft | 360 kts | 345° |
| 2026-05-09 08:59 | 51.86775 | 21.44372 | 18006 ft | 354 kts | 333° |
| 2026-05-09 08:59 | 51.89008 | 21.42704 | 17522 ft | 351 kts | 331° |
| 2026-05-09 08:59 | 51.91204 | 21.40983 | 17044 ft | 349 kts | 331° |
| 2026-05-09 09:00 | 51.93381 | 21.39264 | 16588 ft | 347 kts | 331° |
| 2026-05-09 09:00 | 51.95546 | 21.37563 | 16152 ft | 344 kts | 331° |
| 2026-05-09 09:00 | 51.97700 | 21.35883 | 15715 ft | 342 kts | 332° |
| 2026-05-09 09:00 | 51.99819 | 21.34240 | 15277 ft | 340 kts | 332° |
| 2026-05-09 09:01 | 52.01954 | 21.32590 | 14846 ft | 338 kts | 332° |
| 2026-05-09 09:01 | 52.04072 | 21.30958 | 14492 ft | 334 kts | 332° |
| 2026-05-09 09:01 | 52.06173 | 21.29340 | 14007 ft | 335 kts | 332° |
| 2026-05-09 09:01 | 52.08288 | 21.27709 | 13405 ft | 337 kts | 332° |
| 2026-05-09 09:02 | 52.10415 | 21.26068 | 12810 ft | 338 kts | 332° |
| 2026-05-09 09:02 | 52.12554 | 21.24416 | 12219 ft | 339 kts | 332° |
| 2026-05-09 09:02 | 52.14664 | 21.22786 | 11650 ft | 340 kts | 332° |
| 2026-05-09 09:02 | 52.16806 | 21.21130 | 11080 ft | 340 kts | 332° |
| 2026-05-09 09:03 | 52.18945 | 21.19474 | 10517 ft | 340 kts | 332° |
| 2026-05-09 09:03 | 52.21083 | 21.17817 | 9945 ft | 339 kts | 332° |
| 2026-05-09 09:03 | 52.23216 | 21.16162 | 9341 ft | 338 kts | 333° |
| 2026-05-09 09:03 | 52.25340 | 21.14512 | 8745 ft | 337 kts | 333° |
| 2026-05-09 09:04 | 52.27437 | 21.12883 | 8214 ft | 327 kts | 333° |
| 2026-05-09 09:04 | 52.29440 | 21.11327 | 7799 ft | 311 kts | 333° |
| 2026-05-09 09:04 | 52.31328 | 21.09857 | 7384 ft | 299 kts | 334° |
| 2026-05-09 09:04 | 52.33196 | 21.08400 | 6979 ft | 288 kts | 334° |
| 2026-05-09 09:05 | 52.34952 | 21.07030 | 6583 ft | 279 kts | 334° |
| 2026-05-09 09:05 | 52.36675 | 21.05683 | 6151 ft | 271 kts | 334° |
| 2026-05-09 09:05 | 52.38358 | 21.04366 | 5744 ft | 264 kts | 334° |
| 2026-05-09 09:05 | 52.40000 | 21.03081 | 5322 ft | 258 kts | 335° |
| 2026-05-09 09:06 | 52.41605 | 21.01825 | 4914 ft | 252 kts | 335° |
| 2026-05-09 09:06 | 52.43174 | 21.00592 | 4488 ft | 248 kts | 335° |
| 2026-05-09 09:06 | 52.44721 | 20.99379 | 4074 ft | 244 kts | 335° |
| 2026-05-09 09:06 | 52.46223 | 20.98122 | 3651 ft | 242 kts | 326° |
| 2026-05-09 09:07 | 52.47310 | 20.96040 | 3239 ft | 244 kts | 297° |
| 2026-05-09 09:07 | 52.47705 | 20.93414 | 3016 ft | 238 kts | 274° |
| 2026-05-09 09:07 | 52.47569 | 20.90792 | 2988 ft | 222 kts | 264° |
| 2026-05-09 09:07 | 52.47331 | 20.88354 | 2984 ft | 211 kts | 264° |
| 2026-05-09 09:08 | 52.47100 | 20.86072 | 2982 ft | 194 kts | 264° |
| 2026-05-09 09:08 | 52.46884 | 20.83905 | 2695 ft | 195 kts | 264° |
| 2026-05-09 09:08 | 52.46674 | 20.81712 | 2414 ft | 195 kts | 264° |
| 2026-05-09 09:08 | 52.46468 | 20.79524 | 2105 ft | 194 kts | 264° |
| 2026-05-09 09:09 | 52.46263 | 20.77339 | 1807 ft | 194 kts | 264° |
| 2026-05-09 09:09 | 52.46059 | 20.75152 | 1491 ft | 192 kts | 264° |
| 2026-05-09 09:09 | 52.45857 | 20.73017 | 1182 ft | 187 kts | 264° |
| 2026-05-09 09:09 | 52.45657 | 20.70951 | 939 ft | 177 kts | 263° |
| 2026-05-09 09:10 | 52.45478 | 20.69054 | 656 ft | 161 kts | 265° |
| 2026-05-09 09:10 | 52.45323 | 20.67306 | 403 ft | 151 kts | 262° |
| 2026-05-09 09:10 | 52.45170 | 20.65697 | 339 ft | 125 kts | 259° |
| 2026-05-09 09:10 | 52.45061 | 20.64534 | 335 ft | 82 kts | 261° |
| 2026-05-09 09:11 | 52.44998 | 20.63857 | 337 ft | 41 kts | 261° |
| 2026-05-09 09:11 | 52.44954 | 20.63450 | 337 ft | 26 kts | 238° |
| 2026-05-09 09:11 | 52.44791 | 20.63416 | 336 ft | 24 kts | 171° |
| 2026-05-09 09:11 | 52.44637 | 20.63479 | 337 ft | 23 kts | 129° |
| 2026-05-09 09:12 | 52.44642 | 20.63692 | 337 ft | 19 kts | 81° |
| 2026-05-09 09:12 | 52.44664 | 20.63923 | 333 ft | 22 kts | 82° |
| 2026-05-09 09:12 | 52.44690 | 20.64195 | 335 ft | 27 kts | 81° |
| 2026-05-09 09:12 | 52.44718 | 20.64502 | 336 ft | 27 kts | 81° |
| 2026-05-09 09:13 | 52.44746 | 20.64791 | 337 ft | 25 kts | 82° |
| 2026-05-09 09:13 | 52.44772 | 20.65060 | 336 ft | 23 kts | 81° |
| 2026-05-09 09:13 | 52.44777 | 20.65201 | 333 ft | 3 kts | 139° |
| 2026-05-09 09:13 | 52.44754 | 20.65192 | 335 ft | 4 kts | 205° |
| 2026-05-09 09:14 | 52.44737 | 20.65178 | 334 ft | 0 kts | 205° |